CheckWX is a tool to help pilots better visualize weather data.  It is not intended as a substitute for an official pre-flight weather briefing.

08:03:50 UTC

LFBU TAF
Angoulême-Brie-Champniers Airport
Angoulême/Brie/Champniers, France
TAF LFBU 181700Z 1818/1918 30010KT 9999 BKN040 TEMPO 1818/1821 3000 SHRA BKN015TCU TEMPO 1821/1902 3000 RA OVC015 BECMG 1902/1904 01007KT 3000 BR BKN005 TEMPO 1904/1907 0300 FG VV/// BECMG 1907/1909 9999 NSW SCT030

Mar-18@
18:00 UTC

Mar-18 @ 18:00 UTC

Mar-19@
02:00 UTC

Mar-19 @ 02:00 UTC

TAF LFBU 181700Z 1818/1918 30010KT 9999 BKN040

Expired

Wind
  • 300° at 10 KTS
Cloud Levels
  • Broken at 4,000' AGL

Mar-18@
18:00 UTC

Mar-18 @ 18:00 UTC

Mar-18@
21:00 UTC

Mar-18 @ 21:00 UTC

TEMPO 1818/1821 3000 SHRA BKN015TCU

Expired

Conditions
Rain
Cloud Levels
  • Broken at 1,500' AGL

Mar-18@
21:00 UTC

Mar-18 @ 21:00 UTC

Mar-19@
02:00 UTC

Mar-19 @ 02:00 UTC

TEMPO 1821/1902 3000 RA OVC015

Expired

Conditions
Rain
Cloud Levels
  • Overcast at 1,500' AGL

Mar-19@
02:00 UTC

Mar-19 @ 02:00 UTC

Mar-19@
07:00 UTC

Mar-19 @ 07:00 UTC

BECMG 1902/1904 01007KT 3000 BR BKN005

Expired

Wind
  • 010° at 7 KTS
Conditions
Mist
Cloud Levels
  • Broken at 500' AGL

Mar-19@
04:00 UTC

Mar-19 @ 04:00 UTC

Mar-19@
07:00 UTC

Mar-19 @ 07:00 UTC

TEMPO 1904/1907 0300 FG VV///

Expired

Conditions
Fog

Mar-19@
07:00 UTC

Mar-19 @ 07:00 UTC

Mar-19@
18:00 UTC

Mar-19 @ 18:00 UTC

BECMG 1907/1909 9999 NSW SCT030

Becoming

Becoming Conditions expected by Tue, Mar 19, 2019 @ 09:00 UTC

Wind
  • 010° at 7 KTS
Conditions
No significant weather
Cloud Levels
  • Scattered at 3,000' AGL